Richboro, PA (18954)

6:06 AM EDT on July 06, 2015 (GMT -0400)
KPARICHB3 | | Change Station
CLOSE
Current Station
Personal Weather Station
Location: Richboro, PA
Elevation: 358 ft
Nearby Weather Stations

Elev 358 ft 40.22 °N, 75.01 °W | Updated 1 minute ago

Mostly Cloudy
Mostly Cloudy
67.8 °F
Feels Like 67.8 °F
N
0.0
Wind Variable Wind from SW
Gusts 0.0 mph

Today
High -- | Low -- °F
--% Chance of Precip.
Yesterday
High -- | Low -- °F
Precip. -- in
5:36 AM 8:32 PM
Waning Gibbous, 77% visible
Pressure 30.14 in
Visibility 10.0 miles
Clouds Few 7000 ft
Dew Point 68 °F
Humidity 99%
Rainfall 0.06 in
Snow Depth Not available.
UV 0 out of 12
Pollen 3.40 out of 12
Air Quality Not available.
Flu Activity Not available.
METAR KDYL 060954Z AUTO 00000KT 10SM FEW070 18/18 A3015 RMK AO2 SLP205 T01830183

More Conditions Fewer Conditions

Pressure 30.14 in
Visibility 10.0 miles
Clouds Few 7000 ft
Dew Point 68 °F
Humidity 99%
Rainfall 0.06 in
Snow Depth Not available.
UV 0 out of 12
Pollen 3.40 out of 12
Air Quality Not available.
Flu Activity Not available.
METAR KDYL 060954Z AUTO 00000KT 10SM FEW070 18/18 A3015 RMK AO2 SLP205 T01830183

More Conditions Fewer Conditions

10-Day Weather Forecast

×

Almanac

Astronomy

Jul. 06, 2015 Rise Set
Actual Time
Civil Twilight
Nautical Twilight
Astronomical Twilight
Moon
Length of Visible Light
Length of Day
Tomorrow will be .
, % of the Moon is Illuminated

Today's Extremes

State Highs State Lows

Community

WunderPhotos

Upload Photos

1,835,525 photos uploaded!

WunderBlogs® & News

Nearby

Air Quality

  Air Quality AQ Index Pollutant
Not available.

Snow Depth

Station Depth Elevation

Earthquake Activity

City Distance Mag. Time & Date
Minimum magnitude displayed is 2.5.

Coastal Water Temperatures

Place Temperature

Stations

Nearby Weather Stations

Station Location Temp. Windchill Dew Point Humidity Wind Precip. Elev Updated Type